Time;durP1;ratioP1;P1;durP2;ratioP2;P2;SDS_P1;SDS_P2;PMS_P1;PMS_P2;Temp;Humidity;BMP_temperature;BMP_pressure;BME280_temperature;BME280_humidity;BME280_pressure;Samples;Min_cycle;Max_cycle;Signal;HPM_P1;HPM_P2
2020/12/10 00:01:01;;;;;;;43.08;18.85;;;-1.70;93.30;;;;;;4973937;28;20034;-82
2020/12/10 00:03:27;;;;;;;48.03;21.02;;;-1.80;93.20;;;;;;4966096;28;20026;-81
2020/12/10 00:05:53;;;;;;;46.75;21.65;;;-1.90;93.10;;;;;;4974800;28;20037;-82
2020/12/10 00:08:18;;;;;;;50.65;20.88;;;-2.00;93.10;;;;;;4975673;28;20105;-82
2020/12/10 00:10:44;;;;;;;54.75;21.58;;;-2.00;93.20;;;;;;4975362;28;20390;-81
2020/12/10 00:13:09;;;;;;;36.33;15.18;;;-2.00;93.30;;;;;;4974518;28;20034;-81
2020/12/10 00:15:35;;;;;;;45.00;19.63;;;-1.80;93.60;;;;;;4964598;28;20058;-82
2020/12/10 00:18:00;;;;;;;39.97;17.23;;;-1.60;93.40;;;;;;4974507;28;20532;-82
2020/12/10 00:20:26;;;;;;;31.60;14.75;;;-1.50;93.50;;;;;;4959954;28;20031;-82
2020/12/10 00:22:51;;;;;;;34.97;16.65;;;-1.40;93.40;;;;;;4974633;28;20077;-82
2020/12/10 00:25:17;;;;;;;39.40;17.20;;;-1.40;93.10;;;;;;4973914;28;20425;-83
2020/12/10 00:27:42;;;;;;;42.78;17.88;;;-1.40;93.10;;;;;;4975501;28;20393;-82
2020/12/10 00:30:08;;;;;;;35.60;15.13;;;-1.30;93.20;;;;;;4969307;28;20470;-82
2020/12/10 00:32:34;;;;;;;38.45;15.80;;;-1.20;93.20;;;;;;4971795;28;20026;-82
2020/12/10 00:35:00;;;;;;;33.38;15.43;;;-1.20;93.00;;;;;;4974013;28;20035;-83
2020/12/10 00:37:28;;;;;;;36.55;16.73;;;-1.30;92.90;;;;;;4960340;28;20019;-83
2020/12/10 00:39:54;;;;;;;38.63;18.02;;;-1.40;93.30;;;;;;4972034;28;20110;-83
2020/12/10 00:42:20;;;;;;;33.63;16.50;;;-1.40;92.90;;;;;;4972946;28;20361;-83
2020/12/10 00:44:45;;;;;;;32.45;15.05;;;-1.40;93.00;;;;;;4974322;28;20089;-83
2020/12/10 00:47:11;;;;;;;48.13;18.85;;;-1.50;93.00;;;;;;4966960;28;20029;-83
2020/12/10 00:49:36;;;;;;;33.10;15.05;;;-1.40;93.00;;;;;;4973856;28;20882;-82
2020/12/10 00:52:02;;;;;;;31.45;15.10;;;-1.40;93.20;;;;;;4973241;28;20460;-82
2020/12/10 00:54:27;;;;;;;38.72;19.10;;;-1.30;93.20;;;;;;4973844;28;20030;-81
2020/12/10 00:56:53;;;;;;;34.55;16.45;;;-1.30;92.90;;;;;;4973730;28;20040;-82
2020/12/10 00:59:18;;;;;;;36.47;14.93;;;-1.30;93.10;;;;;;4973619;28;20030;-82
2020/12/10 01:01:44;;;;;;;41.00;17.15;;;-1.40;92.80;;;;;;4974003;28;20031;-83
2020/12/10 01:04:10;;;;;;;43.42;16.40;;;-1.50;93.00;;;;;;4973476;28;20042;-84
2020/12/10 01:06:36;;;;;;;35.53;16.45;;;-1.40;92.90;;;;;;4957485;28;20035;-82
2020/12/10 01:09:04;;;;;;;38.25;16.33;;;-1.40;93.20;;;;;;4972651;28;20199;-84
2020/12/10 01:11:30;;;;;;;43.95;20.55;;;-1.50;93.00;;;;;;4964896;28;20390;-83
2020/12/10 01:13:55;;;;;;;37.20;18.27;;;-1.60;92.90;;;;;;4972860;28;20105;-83
2020/12/10 01:16:22;;;;;;;37.55;16.15;;;-1.50;93.50;;;;;;4971779;28;20034;-83
2020/12/10 01:18:47;;;;;;;39.25;16.52;;;-1.50;93.20;;;;;;4974258;28;20031;-83
2020/12/10 01:21:13;;;;;;;35.90;15.88;;;-1.50;93.10;;;;;;4973186;28;20089;-82
2020/12/10 01:23:38;;;;;;;43.80;19.17;;;-1.50;93.20;;;;;;4955952;28;20049;-83
2020/12/10 01:26:04;;;;;;;38.97;16.50;;;-1.60;93.10;;;;;;4973210;28;20038;-83
2020/12/10 01:28:29;;;;;;;31.75;14.93;;;-1.40;93.60;;;;;;4959161;28;20027;-83
2020/12/10 01:30:55;;;;;;;40.72;17.17;;;-1.40;93.60;;;;;;4973093;28;20497;-83
2020/12/10 01:33:21;;;;;;;39.35;19.05;;;-1.30;93.20;;;;;;4958287;28;20576;-84
2020/12/10 01:35:46;;;;;;;43.88;19.08;;;-1.60;92.60;;;;;;4973670;28;20026;-83
2020/12/10 01:38:12;;;;;;;49.13;21.17;;;-1.70;92.80;;;;;;4967031;28;20718;-85
2020/12/10 01:40:37;;;;;;;46.28;20.88;;;-1.80;93.00;;;;;;4989095;28;20034;-85
2020/12/10 01:43:03;;;;;;;40.03;18.45;;;-1.90;93.10;;;;;;4988541;28;20121;-86
2020/12/10 01:45:28;;;;;;;40.55;17.30;;;-1.90;93.30;;;;;;4955901;28;20445;-85
2020/12/10 01:47:54;;;;;;;46.08;19.52;;;-1.90;93.30;;;;;;4972680;28;20030;-83
2020/12/10 01:50:19;;;;;;;37.22;18.13;;;-1.70;93.40;;;;;;4964752;28;20042;-83
2020/12/10 01:52:45;;;;;;;36.95;15.77;;;-1.70;93.50;;;;;;4955455;28;20968;-84
2020/12/10 01:55:10;;;;;;;34.75;15.82;;;-1.60;93.60;;;;;;4958743;28;20058;-83
2020/12/10 01:57:36;;;;;;;34.80;16.70;;;-1.30;93.70;;;;;;4972908;28;20027;-84
2020/12/10 02:00:02;;;;;;;41.22;18.40;;;-1.40;93.10;;;;;;4973259;28;20572;-84
2020/12/10 02:02:27;;;;;;;46.75;20.20;;;-1.50;93.10;;;;;;4971823;28;20029;-83
2020/12/10 02:04:53;;;;;;;46.60;19.98;;;-1.50;93.30;;;;;;4972269;28;20046;-84
2020/12/10 02:07:18;;;;;;;43.53;19.45;;;-1.50;93.40;;;;;;4956696;28;20113;-83
2020/12/10 02:09:44;;;;;;;41.65;18.50;;;-1.60;93.30;;;;;;4971863;28;20417;-83
2020/12/10 02:12:10;;;;;;;43.03;18.48;;;-1.50;93.60;;;;;;4962074;28;20190;-82
2020/12/10 02:14:37;;;;;;;40.00;17.77;;;-1.50;93.50;;;;;;4971018;28;20728;-82
2020/12/10 02:17:03;;;;;;;43.25;17.60;;;-1.30;93.50;;;;;;4958600;28;20034;-82
2020/12/10 02:19:29;;;;;;;53.35;20.75;;;-1.30;93.40;;;;;;4963827;28;20031;-82
2020/12/10 02:21:54;;;;;;;43.05;17.77;;;-1.40;93.30;;;;;;4972371;28;20042;-81
2020/12/10 02:24:20;;;;;;;40.13;17.48;;;-1.30;93.50;;;;;;4959230;28;20035;-82
2020/12/10 02:26:46;;;;;;;37.63;16.90;;;-1.30;93.50;;;;;;4972285;28;20037;-83
2020/12/10 02:29:11;;;;;;;32.75;13.13;;;-1.20;93.70;;;;;;4971650;28;20101;-82
2020/12/10 02:31:37;;;;;;;43.63;18.52;;;-1.10;93.60;;;;;;4970791;28;20035;-83
2020/12/10 02:34:04;;;;;;;39.47;17.58;;;-1.10;93.20;;;;;;4971066;28;20062;-82
2020/12/10 02:36:30;;;;;;;42.13;18.45;;;-1.20;93.20;;;;;;4971493;28;20114;-83
2020/12/10 02:38:56;;;;;;;47.88;20.33;;;-1.20;93.30;;;;;;4987088;28;20030;-83
2020/12/10 02:41:21;;;;;;;45.90;18.27;;;-1.20;93.40;;;;;;4971770;28;20104;-82
2020/12/10 02:43:47;;;;;;;43.80;18.35;;;-1.30;93.40;;;;;;4971771;28;20026;-83
2020/12/10 02:46:12;;;;;;;49.38;19.95;;;-1.20;93.50;;;;;;4970347;28;20035;-83
2020/12/10 02:48:38;;;;;;;43.00;18.63;;;-1.20;93.50;;;;;;4972022;28;20109;-83
2020/12/10 02:51:04;;;;;;;47.13;20.63;;;-1.20;93.60;;;;;;4988219;28;20046;-83
2020/12/10 02:53:30;;;;;;;44.03;19.80;;;-1.30;93.40;;;;;;4953794;28;20036;-84
2020/12/10 02:55:56;;;;;;;46.03;19.90;;;-1.30;93.50;;;;;;4971829;28;20031;-83
2020/12/10 02:58:22;;;;;;;45.47;19.45;;;-1.30;93.50;;;;;;4969513;28;20038;-84
2020/12/10 03:00:47;;;;;;;40.75;17.27;;;-1.40;93.50;;;;;;4972031;28;20030;-84
2020/12/10 03:03:13;;;;;;;47.83;20.80;;;-1.30;93.70;;;;;;4970094;28;20037;-83
2020/12/10 03:05:39;;;;;;;49.40;20.05;;;-1.30;93.60;;;;;;4956010;28;20030;-82
2020/12/10 03:08:04;;;;;;;52.65;21.55;;;-1.20;93.60;;;;;;4969927;28;20062;-83
2020/12/10 03:10:30;;;;;;;53.38;20.20;;;-1.30;93.40;;;;;;4972932;28;20062;-84
2020/12/10 03:12:56;;;;;;;50.28;20.75;;;-1.30;93.50;;;;;;4971415;28;20061;-83
2020/12/10 03:15:21;;;;;;;54.15;21.08;;;-1.30;93.40;;;;;;4974776;28;20540;-83
2020/12/10 03:17:47;;;;;;;49.35;20.35;;;-1.40;93.40;;;;;;4955473;28;20742;-83
2020/12/10 03:20:12;;;;;;;55.17;21.80;;;-1.40;93.50;;;;;;4971104;28;20022;-83
2020/12/10 03:22:38;;;;;;;52.28;21.90;;;-1.40;93.60;;;;;;4971713;28;20433;-82
2020/12/10 03:25:03;;;;;;;47.65;19.95;;;-1.40;93.50;;;;;;4971136;28;20502;-83
2020/12/10 03:27:29;;;;;;;46.22;20.80;;;-1.40;93.50;;;;;;4971113;28;20105;-83
2020/12/10 03:29:55;;;;;;;46.22;19.80;;;-1.50;93.30;;;;;;4969879;28;20113;-82
2020/12/10 03:32:21;;;;;;;54.92;22.05;;;-1.50;93.40;;;;;;4988235;28;20038;-83
2020/12/10 03:34:46;;;;;;;61.65;21.25;;;-1.40;93.60;;;;;;4962462;28;20045;-83
2020/12/10 03:37:12;;;;;;;55.67;21.88;;;-1.40;93.50;;;;;;4954882;28;20035;-83
2020/12/10 03:39:37;;;;;;;48.58;21.00;;;-1.50;93.40;;;;;;4985825;28;20382;-84
2020/12/10 03:42:04;;;;;;;43.05;18.00;;;-1.50;93.40;;;;;;4970700;28;20477;-83
2020/12/10 03:44:39;;;;;;;52.22;20.30;;;-1.40;93.60;;;;;;4970862;28;20126;-83
2020/12/10 03:47:05;;;;;;;49.58;21.20;;;-1.40;93.30;;;;;;4968462;28;20043;-83
2020/12/10 03:49:30;;;;;;;47.28;21.38;;;-1.50;93.20;;;;;;4971057;28;20081;-83
2020/12/10 03:51:56;;;;;;;50.67;20.42;;;-1.60;93.10;;;;;;4971395;28;20435;-83
2020/12/10 03:54:22;;;;;;;47.25;19.63;;;-1.50;93.40;;;;;;4964046;28;20126;-83
2020/12/10 03:56:47;;;;;;;50.45;21.58;;;-1.60;93.20;;;;;;4971457;28;20038;-83
2020/12/10 03:59:13;;;;;;;49.65;21.50;;;-1.60;93.10;;;;;;4970047;28;20035;-83
2020/12/10 04:01:38;;;;;;;52.47;21.65;;;-1.80;93.00;;;;;;4968342;28;20031;-85
2020/12/10 04:04:04;;;;;;;49.30;22.15;;;-1.90;93.20;;;;;;4971365;28;20519;-85
2020/12/10 04:06:29;;;;;;;51.83;21.40;;;-1.90;93.50;;;;;;4966148;28;20074;-85
2020/12/10 04:08:55;;;;;;;57.75;20.80;;;-1.90;93.10;;;;;;4974138;28;20038;-84
2020/12/10 04:11:21;;;;;;;55.00;22.20;;;-2.00;93.10;;;;;;4975898;28;20495;-85
2020/12/10 04:13:47;;;;;;;52.78;21.80;;;-2.00;93.20;;;;;;4974275;28;20031;-85
2020/12/10 04:16:12;;;;;;;56.35;21.42;;;-2.00;93.40;;;;;;4967339;28;20489;-85
2020/12/10 04:18:39;;;;;;;53.22;21.77;;;-2.00;93.10;;;;;;4974188;28;20026;-85
2020/12/10 04:21:05;;;;;;;59.70;22.38;;;-2.00;93.00;;;;;;4975606;28;20027;-85
2020/12/10 04:23:31;;;;;;;61.88;23.17;;;-2.10;93.10;;;;;;4973361;28;20066;-84
2020/12/10 04:25:56;;;;;;;48.13;18.88;;;-2.10;93.20;;;;;;4974889;28;20062;-84
2020/12/10 04:28:22;;;;;;;56.45;22.90;;;-1.90;93.50;;;;;;4968503;28;20069;-85
2020/12/10 04:30:48;;;;;;;53.50;21.55;;;-2.00;93.10;;;;;;4973983;28;20081;-85
2020/12/10 04:33:13;;;;;;;60.67;24.17;;;-2.10;93.10;;;;;;4973110;28;20045;-84
2020/12/10 04:35:39;;;;;;;54.80;22.50;;;-2.10;93.10;;;;;;4974071;28;20044;-85
2020/12/10 04:38:05;;;;;;;59.70;24.65;;;-2.10;93.20;;;;;;4972921;28;20034;-86
2020/12/10 04:40:31;;;;;;;63.13;23.95;;;-2.20;93.00;;;;;;4974428;28;20105;-85
2020/12/10 04:42:57;;;;;;;55.30;22.23;;;-2.20;93.00;;;;;;4974279;28;20485;-85
2020/12/10 04:45:23;;;;;;;53.47;23.05;;;-2.30;93.00;;;;;;4974460;28;20109;-85
2020/12/10 04:47:50;;;;;;;57.15;23.48;;;-2.30;93.20;;;;;;4974992;28;20492;-85
2020/12/10 04:50:19;;;;;;;60.67;23.73;;;-2.20;93.20;;;;;;4974455;28;20122;-85
2020/12/10 04:52:44;;;;;;;62.42;23.42;;;-2.30;93.20;;;;;;4959670;28;20429;-85
2020/12/10 04:55:10;;;;;;;58.20;21.02;;;-2.30;93.20;;;;;;4974315;28;20046;-84
2020/12/10 04:57:35;;;;;;;59.25;22.83;;;-2.20;93.40;;;;;;4960721;28;20146;-86
2020/12/10 05:00:04;;;;;;;66.00;23.17;;;-2.20;93.00;;;;;;4987519;28;20034;-85
2020/12/10 05:02:39;;;;;;;53.50;21.35;;;-2.40;93.00;;;;;;4951336;28;20038;-85
2020/12/10 05:05:24;;;;;;;42.60;18.33;;;-2.30;93.20;;;;;;4971841;28;20034;-84
2020/12/10 05:07:50;;;;;;;42.85;17.90;;;-2.20;93.60;;;;;;4982016;28;20034;-85
2020/12/10 05:10:16;;;;;;;57.38;23.08;;;-2.10;93.60;;;;;;4971562;28;21343;-85
2020/12/10 05:12:45;;;;;;;46.92;20.02;;;-2.10;93.10;;;;;;4974012;28;20040;-86
2020/12/10 05:15:11;;;;;;;46.97;18.98;;;-2.20;93.10;;;;;;4972908;28;20500;-85
2020/12/10 05:17:37;;;;;;;46.15;20.60;;;-2.20;93.30;;;;;;4972908;28;20027;-86
2020/12/10 05:20:05;;;;;;;42.90;19.05;;;-2.10;93.40;;;;;;4971305;28;20026;-85
2020/12/10 05:22:31;;;;;;;50.30;22.15;;;-2.10;93.50;;;;;;4970839;28;20026;-85
2020/12/10 05:25:00;;;;;;;52.38;20.83;;;-2.20;93.00;;;;;;4972541;28;20371;-84
2020/12/10 05:27:26;;;;;;;55.05;20.85;;;-2.30;92.90;;;;;;4972137;28;20030;-86
2020/12/10 05:29:52;;;;;;;56.78;22.45;;;-2.40;93.00;;;;;;4973135;28;20057;-85
2020/12/10 05:32:36;;;;;;;61.40;23.35;;;-2.50;92.90;;;;;;4971793;28;20126;-85
2020/12/10 05:35:18;;;;;;;54.70;23.45;;;-2.50;93.20;;;;;;4986293;28;20038;-85
2020/12/10 05:37:43;;;;;;;55.42;24.60;;;-2.50;93.20;;;;;;4981955;28;20030;-85
2020/12/10 05:40:10;;;;;;;59.00;23.73;;;-2.60;93.10;;;;;;4970017;28;20564;-84
2020/12/10 05:42:35;;;;;;;59.80;24.30;;;-2.60;93.20;;;;;;4963680;28;20038;-84
2020/12/10 05:45:03;;;;;;;62.63;23.92;;;-2.60;93.20;;;;;;4989087;28;20030;-85
2020/12/10 05:47:30;;;;;;;56.45;22.33;;;-2.60;93.20;;;;;;4961051;28;20034;-85
2020/12/10 05:49:56;;;;;;;62.35;25.33;;;-2.60;93.20;;;;;;4973806;28;20093;-84
2020/12/10 05:52:24;;;;;;;57.05;22.98;;;-2.70;93.00;;;;;;4967935;28;20061;-84
2020/12/10 05:54:50;;;;;;;59.53;25.00;;;-2.70;93.10;;;;;;4972876;28;20034;-85
2020/12/10 05:57:16;;;;;;;56.13;24.35;;;-2.70;93.20;;;;;;4973086;28;20035;-85
2020/12/10 05:59:41;;;;;;;58.15;23.88;;;-2.70;93.10;;;;;;4972626;28;20053;-85
2020/12/10 06:02:10;;;;;;;57.33;23.20;;;-2.80;93.20;;;;;;4972650;28;20416;-85
2020/12/10 06:04:35;;;;;;;59.75;23.27;;;-2.70;93.30;;;;;;4969459;28;20039;-84
2020/12/10 06:07:01;;;;;;;62.00;24.67;;;-2.80;93.10;;;;;;4972517;28;20053;-84
2020/12/10 06:09:28;;;;;;;54.80;21.02;;;-2.80;93.30;;;;;;4973558;28;20057;-85
2020/12/10 06:12:00;;;;;;;57.97;23.27;;;-2.60;93.50;;;;;;4973675;28;20409;-85
2020/12/10 06:14:26;;;;;;;53.55;22.98;;;-2.60;93.30;;;;;;4954030;28;20031;-85
2020/12/10 06:17:06;;;;;;;59.00;24.08;;;-2.60;93.20;;;;;;4971361;28;20655;-85
2020/12/10 06:19:32;;;;;;;58.72;23.42;;;-2.70;93.30;;;;;;4958990;28;20046;-85
2020/12/10 06:21:58;;;;;;;62.13;24.75;;;-2.80;93.10;;;;;;4972617;28;20038;-85
2020/12/10 06:24:27;;;;;;;60.15;24.90;;;-2.80;93.10;;;;;;4971932;28;20027;-85
2020/12/10 06:26:53;;;;;;;61.60;24.67;;;-2.90;93.00;;;;;;4990819;28;20595;-86
2020/12/10 06:29:29;;;;;;;66.38;25.00;;;-2.90;93.10;;;;;;4988663;28;20133;-85
2020/12/10 06:32:06;;;;;;;66.25;25.40;;;-2.90;93.20;;;;;;4966230;28;20038;-84
2020/12/10 06:34:52;;;;;;;65.80;23.20;;;-2.80;93.30;;;;;;4970349;28;20044;-84
2020/12/10 06:37:27;;;;;;;60.42;23.02;;;-2.80;93.20;;;;;;4972917;28;20036;-84
2020/12/10 06:39:55;;;;;;;58.88;23.60;;;-2.80;93.10;;;;;;4972110;28;20117;-85
2020/12/10 06:42:21;;;;;;;55.00;22.38;;;-2.80;92.90;;;;;;4987138;28;20105;-85
2020/12/10 06:44:46;;;;;;;61.78;24.90;;;-2.90;93.10;;;;;;4970971;28;20125;-84
2020/12/10 06:47:12;;;;;;;59.60;22.77;;;-2.90;93.30;;;;;;4971686;28;20452;-84
2020/12/10 06:49:38;;;;;;;58.10;24.52;;;-2.80;93.40;;;;;;4954790;28;20034;-84
2020/12/10 06:52:19;;;;;;;58.78;24.83;;;-2.90;93.20;;;;;;4971954;28;20441;-84
2020/12/10 06:55:04;;;;;;;62.92;24.73;;;-2.80;93.30;;;;;;4987836;28;20442;-84
2020/12/10 06:58:05;;;;;;;60.95;24.27;;;-2.80;93.20;;;;;;4972138;28;20038;-85
2020/12/10 07:00:39;;;;;;;51.90;22.33;;;-2.90;93.00;;;;;;4988210;28;20120;-84
2020/12/10 07:03:18;;;;;;;53.35;21.67;;;-3.00;93.20;;;;;;4970205;28;20050;-83
2020/12/10 07:05:44;;;;;;;54.80;22.90;;;-3.00;93.10;;;;;;4956362;28;20498;-83
2020/12/10 07:08:11;;;;;;;61.63;23.77;;;-3.00;93.20;;;;;;4972354;28;20026;-84
2020/12/10 07:10:41;;;;;;;55.03;22.48;;;-3.00;93.30;;;;;;4970390;28;20510;-85
2020/12/10 07:13:08;;;;;;;53.58;24.35;;;-2.90;93.30;;;;;;4971181;28;20481;-84
2020/12/10 07:15:34;;;;;;;58.08;24.80;;;-3.00;93.10;;;;;;4969214;28;20023;-85
2020/12/10 07:18:02;;;;;;;56.08;24.73;;;-3.00;93.20;;;;;;4966083;28;20434;-85
2020/12/10 07:20:29;;;;;;;61.28;23.65;;;-3.00;93.20;;;;;;4968931;28;20027;-84
2020/12/10 07:22:55;;;;;;;56.33;23.60;;;-3.00;93.20;;;;;;4972269;28;20026;-85
2020/12/10 07:25:21;;;;;;;58.60;23.50;;;-3.00;93.20;;;;;;4966873;28;20243;-85
2020/12/10 07:27:46;;;;;;;55.78;22.73;;;-3.00;93.20;;;;;;4968068;28;20390;-85
2020/12/10 07:30:15;;;;;;;54.85;22.55;;;-3.00;93.10;;;;;;4967834;28;20084;-84
2020/12/10 07:32:40;;;;;;;57.28;24.13;;;-3.00;93.30;;;;;;4967961;28;20030;-84
2020/12/10 07:35:08;;;;;;;57.67;24.42;;;-3.00;93.20;;;;;;4969121;28;20029;-84
2020/12/10 07:37:34;;;;;;;52.40;23.58;;;-2.90;93.30;;;;;;4958394;28;20041;-85
2020/12/10 07:40:10;;;;;;;55.03;22.50;;;-3.00;93.40;;;;;;4971259;28;20121;-84
2020/12/10 07:42:36;;;;;;;62.38;23.08;;;-3.00;93.20;;;;;;4958863;28;20444;-85
2020/12/10 07:45:32;;;;;;;56.00;23.05;;;-3.00;93.20;;;;;;4993850;28;20034;-86
2020/12/10 07:48:00;;;;;;;51.67;19.40;;;-3.00;93.20;;;;;;4980198;28;20502;-85
2020/12/10 07:50:26;;;;;;;62.92;24.38;;;-3.00;93.20;;;;;;4973292;28;20042;-84
2020/12/10 07:52:52;;;;;;;59.40;23.70;;;-3.00;93.20;;;;;;4976037;28;20038;-85
2020/12/10 07:55:22;;;;;;;64.25;25.15;;;-3.00;93.20;;;;;;4971240;28;20033;-85
2020/12/10 07:58:11;;;;;;;55.78;23.42;;;-2.90;93.30;;;;;;4977558;28;20030;-85
2020/12/10 08:00:37;;;;;;;57.90;22.27;;;-2.90;93.30;;;;;;4970211;28;20625;-85
2020/12/10 08:03:27;;;;;;;60.22;24.67;;;-2.90;93.40;;;;;;4968252;28;20494;-82
2020/12/10 08:06:02;;;;;;;65.05;24.50;;;-2.80;93.50;;;;;;4974104;28;20138;-82
2020/12/10 08:08:31;;;;;;;52.50;20.27;;;-2.80;93.40;;;;;;4977512;28;20042;-85
2020/12/10 08:11:05;;;;;;;69.95;24.63;;;-2.70;93.50;;;;;;4990451;28;20039;-85
2020/12/10 08:13:31;;;;;;;53.60;22.00;;;-2.70;93.50;;;;;;4973855;28;20121;-85
2020/12/10 08:15:56;;;;;;;59.05;23.63;;;-2.60;93.70;;;;;;4974313;28;20123;-85
2020/12/10 08:18:22;;;;;;;60.13;25.63;;;-2.60;93.60;;;;;;4972344;28;22694;-85
2020/12/10 08:20:49;;;;;;;63.10;24.17;;;-2.60;93.60;;;;;;4974835;28;20038;-85
2020/12/10 08:23:15;;;;;;;57.03;23.38;;;-2.50;93.70;;;;;;4973837;28;20084;-85
2020/12/10 08:25:42;;;;;;;62.88;24.67;;;-2.50;93.80;;;;;;4958011;28;20085;-85
2020/12/10 08:28:08;;;;;;;69.03;27.23;;;-2.50;93.80;;;;;;4962221;28;20126;-83
2020/12/10 08:30:34;;;;;;;66.57;26.05;;;-2.50;94.00;;;;;;4974332;28;20478;-83
2020/12/10 08:33:01;;;;;;;64.50;26.63;;;-2.40;93.80;;;;;;4975373;28;20025;-83
2020/12/10 08:35:27;;;;;;;62.10;24.10;;;-2.40;93.80;;;;;;4974637;28;20027;-83
2020/12/10 08:37:54;;;;;;;62.63;24.65;;;-2.30;94.00;;;;;;4990238;28;20037;-83
2020/12/10 08:40:31;;;;;;;53.38;21.98;;;-2.20;94.10;;;;;;4973785;28;20033;-84
2020/12/10 08:43:06;;;;;;;53.80;23.00;;;-2.00;94.40;;;;;;4973788;28;20027;-84
2020/12/10 08:45:44;;;;;;;55.50;22.58;;;-1.90;94.10;;;;;;4974491;28;20031;-84
2020/12/10 08:48:15;;;;;;;45.78;20.23;;;-1.80;94.10;;;;;;4957614;28;20022;-84
2020/12/10 08:50:56;;;;;;;55.85;23.48;;;-1.70;94.20;;;;;;4973782;28;20038;-84
2020/12/10 08:53:22;;;;;;;48.15;21.77;;;-1.60;94.10;;;;;;4955016;28;20059;-84
2020/12/10 08:55:50;;;;;;;45.08;18.73;;;-1.50;94.10;;;;;;4956243;28;20509;-84
2020/12/10 08:58:29;;;;;;;55.00;22.20;;;-1.40;94.20;;;;;;4973195;28;20030;-85
2020/12/10 09:00:55;;;;;;;50.83;21.85;;;-1.40;94.10;;;;;;4958604;28;20044;-84
2020/12/10 09:03:21;;;;;;;49.83;21.83;;;-1.20;94.50;;;;;;4952861;28;20041;-85
2020/12/10 09:05:47;;;;;;;40.60;18.48;;;-1.00;94.60;;;;;;4953618;28;20031;-85
2020/12/10 09:08:13;;;;;;;49.15;22.02;;;-0.80;94.60;;;;;;4986450;28;20085;-86
2020/12/10 09:10:39;;;;;;;45.63;19.30;;;-0.70;94.50;;;;;;4973714;28;20033;-85
2020/12/10 09:13:04;;;;;;;40.83;18.02;;;-0.60;94.40;;;;;;4972569;28;20054;-84
2020/12/10 09:15:30;;;;;;;38.20;17.90;;;-0.40;94.40;;;;;;4963885;28;20030;-85
2020/12/10 09:17:56;;;;;;;38.20;17.80;;;-0.20;94.60;;;;;;4973691;28;20023;-85
2020/12/10 09:20:22;;;;;;;42.35;19.92;;;-0.20;94.20;;;;;;4972335;28;20033;-85
2020/12/10 09:22:47;;;;;;;42.97;21.35;;;-0.20;94.30;;;;;;4966614;28;20411;-86
2020/12/10 09:25:13;;;;;;;45.83;20.35;;;0.00;94.50;;;;;;4961446;28;20033;-86
2020/12/10 09:27:38;;;;;;;48.90;23.42;;;0.00;94.40;;;;;;4964558;28;20061;-85
2020/12/10 09:30:04;;;;;;;;;;;0.10;94.30;;;;;;4628917;28;10000352;-85
2020/12/10 09:32:34;;;;;;;35.55;16.50;;;0.20;94.50;;;;;;4973045;28;20643;-85
2020/12/10 09:35:12;;;;;;;39.80;16.23;;;0.60;95.20;;;;;;4971760;28;20031;-85
2020/12/10 09:37:38;;;;;;;42.83;19.95;;;0.70;95.00;;;;;;4956850;28;20030;-85
2020/12/10 09:40:05;;;;;;;44.92;20.92;;;0.60;94.40;;;;;;4972735;28;20480;-85
2020/12/10 09:42:32;;;;;;;45.58;20.48;;;0.70;94.50;;;;;;4971889;28;20547;-84
2020/12/10 09:44:57;;;;;;;41.15;17.58;;;0.70;94.40;;;;;;4971463;28;20038;-85
2020/12/10 09:47:23;;;;;;;35.90;17.52;;;0.70;94.80;;;;;;4972458;28;20042;-83
2020/12/10 09:49:49;;;;;;;48.42;24.02;;;0.50;94.00;;;;;;4972360;28;20081;-83
2020/12/10 09:52:14;;;;;;;49.60;22.63;;;-0.10;93.30;;;;;;4972069;28;20057;-83
2020/12/10 09:55:04;;;;;;;47.97;21.77;;;-0.20;94.60;;;;;;4970803;28;20048;-84
2020/12/10 09:57:34;;;;;;;34.25;17.33;;;-0.10;94.80;;;;;;4959367;28;20035;-84
2020/12/10 10:00:00;;;;;;;41.72;17.92;;;0.00;94.80;;;;;;4972034;28;20037;-84
2020/12/10 10:02:26;;;;;;;44.00;21.15;;;0.60;95.60;;;;;;4971431;28;20508;-84
2020/12/10 10:05:06;;;;;;;38.03;17.85;;;0.50;94.80;;;;;;4964195;28;20038;-84
2020/12/10 10:07:32;;;;;;;42.70;20.02;;;1.20;95.70;;;;;;4974063;28;20046;-84
2020/12/10 10:09:58;;;;;;;35.90;16.75;;;1.60;95.70;;;;;;4971928;28;20405;-84
2020/12/10 10:12:31;;;;;;;40.60;19.15;;;1.90;95.40;;;;;;4952829;28;20023;-84
2020/12/10 10:14:57;;;;;;;35.08;16.25;;;1.80;94.10;;;;;;4948688;28;20030;-85
2020/12/10 10:17:23;;;;;;;42.58;21.10;;;1.90;95.60;;;;;;4971611;28;20125;-84
2020/12/10 10:19:48;;;;;;;34.22;15.52;;;2.20;95.50;;;;;;4971915;28;20034;-85
2020/12/10 10:22:15;;;;;;;40.92;18.58;;;2.40;95.50;;;;;;4971113;28;20031;-84
2020/12/10 10:24:40;;;;;;;34.97;16.30;;;2.80;95.70;;;;;;4971760;28;20073;-85
2020/12/10 10:27:06;;;;;;;34.17;17.65;;;2.90;95.50;;;;;;4970176;28;20094;-84
2020/12/10 10:29:32;;;;;;;36.95;18.13;;;3.00;95.20;;;;;;4970867;28;20363;-85
2020/12/10 10:31:59;;;;;;;38.83;18.42;;;3.10;95.20;;;;;;4971159;28;20351;-85
2020/12/10 10:34:31;;;;;;;31.92;15.73;;;3.20;95.30;;;;;;4956514;28;20038;-84
2020/12/10 10:36:56;;;;;;;40.97;19.15;;;3.30;95.40;;;;;;4973575;28;20039;-85
2020/12/10 10:39:22;;;;;;;38.35;17.13;;;3.50;95.80;;;;;;4972277;28;20401;-84
2020/12/10 10:41:48;;;;;;;37.00;16.27;;;4.00;96.00;;;;;;4973066;28;20037;-85
2020/12/10 10:44:21;;;;;;;36.67;16.88;;;4.20;95.50;;;;;;4970807;28;20571;-86
2020/12/10 10:46:47;;;;;;;37.90;18.60;;;4.50;95.30;;;;;;4970581;28;20026;-85
2020/12/10 10:49:15;;;;;;;36.97;17.50;;;4.40;95.10;;;;;;4967336;28;20614;-84
2020/12/10 10:51:41;;;;;;;34.05;17.52;;;4.30;95.30;;;;;;4978267;28;20042;-84
2020/12/10 10:54:23;;;;;;;35.28;17.23;;;4.60;95.80;;;;;;4955390;28;20034;-84
2020/12/10 10:56:49;;;;;;;33.03;17.48;;;5.00;96.00;;;;;;4955925;28;20026;-85
2020/12/10 10:59:15;;;;;;;34.13;16.80;;;5.30;95.80;;;;;;4941581;28;20049;-85
2020/12/10 11:01:41;;;;;;;35.50;17.63;;;5.50;95.70;;;;;;4970649;28;20118;-84
2020/12/10 11:04:07;;;;;;;29.42;16.13;;;6.00;94.70;;;;;;4971675;28;20485;-85
2020/12/10 11:06:32;;;;;;;36.63;18.25;;;6.40;95.10;;;;;;4962692;28;20120;-83
2020/12/10 11:08:58;;;;;;;28.20;15.32;;;6.80;94.20;;;;;;4972003;28;20098;-84
2020/12/10 11:11:30;;;;;;;33.60;17.85;;;6.40;93.30;;;;;;4972350;28;20081;-84
2020/12/10 11:13:56;;;;;;;33.95;16.45;;;6.10;93.20;;;;;;4972038;28;20446;-84
2020/12/10 11:16:22;;;;;;;37.17;19.67;;;6.10;93.70;;;;;;4970776;28;20041;-83
2020/12/10 11:18:48;;;;;;;31.33;17.02;;;6.10;91.90;;;;;;4962943;28;20537;-84
2020/12/10 11:21:14;;;;;;;35.13;19.08;;;5.70;93.90;;;;;;4956030;28;20384;-84
2020/12/10 11:23:41;;;;;;;34.20;16.20;;;5.60;94.00;;;;;;4986610;28;20026;-84
2020/12/10 11:26:06;;;;;;;32.40;17.02;;;5.30;94.90;;;;;;4977308;28;20093;-84
2020/12/10 11:28:32;;;;;;;33.90;16.33;;;5.80;93.60;;;;;;4969169;28;20043;-83
2020/12/10 11:30:58;;;;;;;31.23;16.20;;;5.80;94.10;;;;;;4970459;28;20117;-83
2020/12/10 11:33:24;;;;;;;27.90;15.30;;;6.70;95.80;;;;;;4970938;28;20050;-84
2020/12/10 11:35:50;;;;;;;30.33;15.68;;;7.50;95.00;;;;;;4962051;28;20046;-83
2020/12/10 11:38:16;;;;;;;31.15;16.65;;;7.00;93.50;;;;;;4952758;28;20023;-83
2020/12/10 11:40:57;;;;;;;31.42;15.85;;;7.50;94.10;;;;;;4972527;28;20029;-83
2020/12/10 11:43:22;;;;;;;31.52;16.02;;;7.40;92.60;;;;;;4955094;28;20033;-83
2020/12/10 11:45:48;;;;;;;33.03;16.15;;;6.80;93.10;;;;;;4968919;28;20117;-83
2020/12/10 11:48:20;;;;;;;28.35;14.93;;;6.80;94.80;;;;;;4283308;28;10000623;-83
2020/12/10 11:50:46;;;;;;;30.00;15.63;;;6.90;94.70;;;;;;4958089;28;20042;-83
2020/12/10 11:53:12;;;;;;;28.40;14.90;;;7.20;93.10;;;;;;4968318;28;20038;-83
2020/12/10 11:55:39;;;;;;;29.48;15.20;;;7.20;93.00;;;;;;4969299;28;20022;-83
2020/12/10 11:58:04;;;;;;;31.48;16.50;;;7.20;92.10;;;;;;4969423;28;20050;-83
2020/12/10 12:00:31;;;;;;;31.48;15.73;;;7.00;92.50;;;;;;4985494;28;20026;-84
2020/12/10 12:02:56;;;;;;;25.77;13.93;;;6.80;93.00;;;;;;4967309;28;20478;-83
2020/12/10 12:05:24;;;;;;;29.00;15.10;;;6.70;92.80;;;;;;4970577;28;20118;-83
2020/12/10 12:07:49;;;;;;;30.00;15.95;;;6.60;92.70;;;;;;4970904;28;20395;-83
2020/12/10 12:10:15;;;;;;;28.70;15.25;;;6.70;91.90;;;;;;4952585;28;20031;-83
2020/12/10 12:12:49;;;;;;;25.45;13.18;;;6.90;92.40;;;;;;4968761;28;20401;-83
2020/12/10 12:15:14;;;;;;;28.40;15.23;;;7.00;91.60;;;;;;4969837;28;20142;-83
2020/12/10 12:17:44;;;;;;;29.30;15.65;;;6.90;91.20;;;;;;4967954;28;20085;-83
2020/12/10 12:20:13;;;;;;;28.05;15.23;;;6.50;92.10;;;;;;4970101;28;20046;-84
2020/12/10 12:22:38;;;;;;;25.85;14.60;;;6.50;92.60;;;;;;4968898;28;20126;-84
2020/12/10 12:25:05;;;;;;;25.05;13.13;;;6.20;92.10;;;;;;4986216;28;20121;-84
2020/12/10 12:27:30;;;;;;;25.42;13.20;;;6.20;92.10;;;;;;4958183;28;20062;-84
2020/12/10 12:29:56;;;;;;;24.75;12.98;;;6.30;91.10;;;;;;4970968;28;20422;-83
2020/12/10 12:32:22;;;;;;;27.35;13.50;;;6.10;90.40;;;;;;4971915;28;20062;-83